sensor_id;sensor_type;location;lat;lon;timestamp;pressure;altitude;pressure_sealevel;temperature;humidity
51299;BME280;37382;45.192;9.790;2023-07-13T03:45:06;100944.91;;;23.49;100.00
51299;BME280;37382;45.192;9.790;2023-07-13T03:47:34;100933.81;;;23.49;100.00
51299;BME280;37382;45.192;9.790;2023-07-13T03:50:04;100944.38;;;23.37;100.00
51299;BME280;37382;45.192;9.790;2023-07-13T03:52:32;100944.41;;;23.16;100.00
51299;BME280;37382;45.192;9.790;2023-07-13T03:55:01;100943.00;;;23.19;100.00
51299;BME280;37382;45.192;9.790;2023-07-13T03:57:28;100934.13;;;23.12;100.00
51299;BME280;37382;45.192;9.790;2023-07-13T03:59:57;100943.25;;;23.53;100.00
51299;BME280;37382;45.192;9.790;2023-07-13T04:02:25;100947.97;;;23.53;100.00
51299;BME280;37382;45.192;9.790;2023-07-13T04:04:53;100954.59;;;23.77;100.00
51299;BME280;37382;45.192;9.790;2023-07-13T04:07:24;100959.59;;;23.70;100.00
51299;BME280;37382;45.192;9.790;2023-07-13T04:09:52;100957.97;;;23.28;100.00
51299;BME280;37382;45.192;9.790;2023-07-13T04:12:20;100959.91;;;23.07;100.00
51299;BME280;37382;45.192;9.790;2023-07-13T04:14:48;100960.72;;;23.07;100.00
51299;BME280;37382;45.192;9.790;2023-07-13T04:17:15;100956.59;;;23.20;100.00
51299;BME280;37382;45.192;9.790;2023-07-13T04:19:43;100967.94;;;23.70;100.00
51299;BME280;37382;45.192;9.790;2023-07-13T04:22:11;100968.25;;;23.48;100.00
51299;BME280;37382;45.192;9.790;2023-07-13T04:24:39;100944.38;;;23.01;100.00
51299;BME280;37382;45.192;9.790;2023-07-13T04:27:08;100929.13;;;23.14;100.00
51299;BME280;37382;45.192;9.790;2023-07-13T04:29:35;100941.03;;;23.30;100.00
51299;BME280;37382;45.192;9.790;2023-07-13T04:32:03;100981.03;;;23.18;100.00
51299;BME280;37382;45.192;9.790;2023-07-13T04:34:31;100997.38;;;23.76;100.00
51299;BME280;37382;45.192;9.790;2023-07-13T04:36:59;100983.47;;;23.76;100.00
51299;BME280;37382;45.192;9.790;2023-07-13T04:39:26;100957.69;;;23.50;100.00
51299;BME280;37382;45.192;9.790;2023-07-13T04:41:53;100939.59;;;23.63;100.00
51299;BME280;37382;45.192;9.790;2023-07-13T04:44:22;100929.56;;;23.93;100.00
51299;BME280;37382;45.192;9.790;2023-07-13T04:46:50;100947.03;;;24.04;100.00
51299;BME280;37382;45.192;9.790;2023-07-13T04:49:18;100960.84;;;24.29;100.00
51299;BME280;37382;45.192;9.790;2023-07-13T04:51:45;100961.72;;;24.20;100.00
51299;BME280;37382;45.192;9.790;2023-07-13T04:54:12;100972.94;;;23.68;100.00
51299;BME280;37382;45.192;9.790;2023-07-13T04:56:40;100973.81;;;23.48;100.00
51299;BME280;37382;45.192;9.790;2023-07-13T04:59:07;100970.16;;;23.78;100.00
51299;BME280;37382;45.192;9.790;2023-07-13T05:01:35;100957.34;;;23.83;100.00
51299;BME280;37382;45.192;9.790;2023-07-13T05:04:02;100952.59;;;24.09;100.00
51299;BME280;37382;45.192;9.790;2023-07-13T05:06:30;100951.47;;;24.10;100.00
51299;BME280;37382;45.192;9.790;2023-07-13T05:08:58;100961.69;;;24.25;100.00
51299;BME280;37382;45.192;9.790;2023-07-13T05:11:27;100971.53;;;24.62;100.00
51299;BME280;37382;45.192;9.790;2023-07-13T05:13:55;100977.41;;;24.55;100.00
51299;BME280;37382;45.192;9.790;2023-07-13T05:16:22;100973.16;;;24.73;100.00
51299;BME280;37382;45.192;9.790;2023-07-13T05:18:49;100967.41;;;24.49;100.00
51299;BME280;37382;45.192;9.790;2023-07-13T05:21:17;100970.47;;;24.58;100.00
51299;BME280;37382;45.192;9.790;2023-07-13T05:23:45;100971.06;;;24.44;100.00
51299;BME280;37382;45.192;9.790;2023-07-13T05:26:13;100957.56;;;24.72;100.00
51299;BME280;37382;45.192;9.790;2023-07-13T05:28:41;100949.38;;;24.41;100.00
51299;BME280;37382;45.192;9.790;2023-07-13T05:31:09;100947.19;;;24.33;100.00
51299;BME280;37382;45.192;9.790;2023-07-13T05:33:39;100954.16;;;24.30;100.00
51299;BME280;37382;45.192;9.790;2023-07-13T05:36:06;100939.13;;;24.31;100.00
51299;BME280;37382;45.192;9.790;2023-07-13T05:38:34;100929.66;;;24.38;100.00
51299;BME280;37382;45.192;9.790;2023-07-13T05:41:02;100931.34;;;24.33;100.00
51299;BME280;37382;45.192;9.790;2023-07-13T05:43:33;100934.72;;;24.25;100.00
51299;BME280;37382;45.192;9.790;2023-07-13T05:46:01;100937.91;;;23.93;100.00
51299;BME280;37382;45.192;9.790;2023-07-13T05:48:28;100954.59;;;23.77;100.00
51299;BME280;37382;45.192;9.790;2023-07-13T05:50:56;100954.31;;;23.69;100.00
51299;BME280;37382;45.192;9.790;2023-07-13T05:53:23;100961.25;;;23.97;100.00
51299;BME280;37382;45.192;9.790;2023-07-13T05:55:54;100972.59;;;24.06;100.00
51299;BME280;37382;45.192;9.790;2023-07-13T05:58:22;100967.25;;;24.25;100.00
51299;BME280;37382;45.192;9.790;2023-07-13T06:00:59;100956.81;;;23.86;100.00
51299;BME280;37382;45.192;9.790;2023-07-13T06:03:26;100962.69;;;23.63;100.00
51299;BME280;37382;45.192;9.790;2023-07-13T06:05:54;100965.44;;;23.69;100.00
51299;BME280;37382;45.192;9.790;2023-07-13T06:08:22;100972.84;;;24.14;100.00
51299;BME280;37382;45.192;9.790;2023-07-13T06:10:50;100968.41;;;24.08;100.00
51299;BME280;37382;45.192;9.790;2023-07-13T06:13:17;100978.16;;;24.11;100.00
51299;BME280;37382;45.192;9.790;2023-07-13T06:15:49;100986.78;;;23.99;100.00
51299;BME280;37382;45.192;9.790;2023-07-13T06:18:17;101008.63;;;24.31;100.00
51299;BME280;37382;45.192;9.790;2023-07-13T06:20:45;101010.53;;;24.51;100.00
51299;BME280;37382;45.192;9.790;2023-07-13T06:23:13;101007.22;;;24.39;100.00
51299;BME280;37382;45.192;9.790;2023-07-13T06:25:40;101008.09;;;24.29;100.00
51299;BME280;37382;45.192;9.790;2023-07-13T06:28:08;101014.69;;;24.49;100.00
51299;BME280;37382;45.192;9.790;2023-07-13T06:30:38;101014.16;;;24.42;100.00
51299;BME280;37382;45.192;9.790;2023-07-13T06:33:06;101012.72;;;24.60;100.00
51299;BME280;37382;45.192;9.790;2023-07-13T06:35:34;101013.47;;;24.81;100.00
51299;BME280;37382;45.192;9.790;2023-07-13T06:38:01;101004.91;;;24.62;100.00
51299;BME280;37382;45.192;9.790;2023-07-13T06:40:30;101001.56;;;24.65;100.00
51299;BME280;37382;45.192;9.790;2023-07-13T06:42:58;101012.44;;;24.56;100.00
51299;BME280;37382;45.192;9.790;2023-07-13T06:45:26;101020.13;;;24.80;100.00
51299;BME280;37382;45.192;9.790;2023-07-13T06:47:54;101010.78;;;24.60;100.00
51299;BME280;37382;45.192;9.790;2023-07-13T06:50:22;101008.03;;;24.45;100.00
51299;BME280;37382;45.192;9.790;2023-07-13T06:52:49;101007.56;;;24.27;100.00
51299;BME280;37382;45.192;9.790;2023-07-13T06:55:17;101004.84;;;24.77;100.00
51299;BME280;37382;45.192;9.790;2023-07-13T06:57:45;101010.31;;;25.37;100.00
51299;BME280;37382;45.192;9.790;2023-07-13T07:00:13;101011.75;;;25.30;100.00
51299;BME280;37382;45.192;9.790;2023-07-13T07:02:40;100993.31;;;25.39;100.00
51299;BME280;37382;45.192;9.790;2023-07-13T07:05:08;100968.25;;;24.99;100.00
51299;BME280;37382;45.192;9.790;2023-07-13T07:07:35;100979.84;;;24.72;100.00
51299;BME280;37382;45.192;9.790;2023-07-13T07:10:03;100974.84;;;24.69;100.00
51299;BME280;37382;45.192;9.790;2023-07-13T07:12:31;100992.56;;;24.83;100.00
51299;BME280;37382;45.192;9.790;2023-07-13T07:14:59;100964.53;;;25.14;100.00
51299;BME280;37382;45.192;9.790;2023-07-13T07:17:27;100950.03;;;25.12;100.00
51299;BME280;37382;45.192;9.790;2023-07-13T07:19:54;100948.88;;;25.18;100.00
51299;BME280;37382;45.192;9.790;2023-07-13T07:22:22;100968.06;;;25.20;100.00
51299;BME280;37382;45.192;9.790;2023-07-13T07:24:50;101003.50;;;25.14;100.00
51299;BME280;37382;45.192;9.790;2023-07-13T07:27:17;101028.22;;;25.21;100.00
51299;BME280;37382;45.192;9.790;2023-07-13T07:29:48;101046.53;;;24.88;100.00
51299;BME280;37382;45.192;9.790;2023-07-13T07:32:35;101047.66;;;24.86;100.00
51299;BME280;37382;45.192;9.790;2023-07-13T07:35:06;101030.06;;;24.96;100.00
51299;BME280;37382;45.192;9.790;2023-07-13T07:37:34;101037.28;;;24.97;100.00
51299;BME280;37382;45.192;9.790;2023-07-13T07:40:05;101034.50;;;24.97;100.00
51299;BME280;37382;45.192;9.790;2023-07-13T07:42:36;101023.28;;;25.13;100.00
51299;BME280;37382;45.192;9.790;2023-07-13T07:45:04;101029.91;;;25.17;100.00
51299;BME280;37382;45.192;9.790;2023-07-13T07:47:31;101026.16;;;24.97;100.00
51299;BME280;37382;45.192;9.790;2023-07-13T07:49:59;101033.13;;;24.95;100.00
51299;BME280;37382;45.192;9.790;2023-07-13T07:52:26;101020.03;;;25.00;100.00
51299;BME280;37382;45.192;9.790;2023-07-13T07:54:54;100996.19;;;24.84;100.00
51299;BME280;37382;45.192;9.790;2023-07-13T07:57:42;100998.97;;;24.84;100.00
51299;BME280;37382;45.192;9.790;2023-07-13T08:00:12;101013.75;;;25.19;100.00
51299;BME280;37382;45.192;9.790;2023-07-13T08:02:44;101025.34;;;24.92;100.00
51299;BME280;37382;45.192;9.790;2023-07-13T08:05:14;101022.28;;;24.93;100.00
51299;BME280;37382;45.192;9.790;2023-07-13T08:07:44;101008.56;;;25.07;100.00
51299;BME280;37382;45.192;9.790;2023-07-13T08:10:12;101007.63;;;25.17;100.00
51299;BME280;37382;45.192;9.790;2023-07-13T08:12:40;100998.22;;;25.13;100.00
51299;BME280;37382;45.192;9.790;2023-07-13T08:15:12;101012.88;;;25.24;100.00
51299;BME280;37382;45.192;9.790;2023-07-13T08:17:39;101014.50;;;25.35;100.00
51299;BME280;37382;45.192;9.790;2023-07-13T08:20:08;101026.41;;;25.01;100.00
51299;BME280;37382;45.192;9.790;2023-07-13T08:22:36;101033.94;;;25.00;100.00
51299;BME280;37382;45.192;9.790;2023-07-13T08:25:04;101033.41;;;24.93;100.00
51299;BME280;37382;45.192;9.790;2023-07-13T08:27:32;101033.94;;;25.00;100.00
51299;BME280;37382;45.192;9.790;2023-07-13T08:30:00;101020.56;;;25.02;100.00
51299;BME280;37382;45.192;9.790;2023-07-13T08:32:27;101008.19;;;24.79;100.00
51299;BME280;37382;45.192;9.790;2023-07-13T08:34:55;101002.56;;;24.90;100.00
51299;BME280;37382;45.192;9.790;2023-07-13T08:37:22;101009.31;;;24.73;100.00
51299;BME280;37382;45.192;9.790;2023-07-13T08:39:49;101038.50;;;24.81;100.00
51299;BME280;37382;45.192;9.790;2023-07-13T08:45:07;101050.78;;;24.69;100.00
51299;BME280;37382;45.192;9.790;2023-07-13T08:47:42;101050.56;;;24.61;100.00
51299;BME280;37382;45.192;9.790;2023-07-13T08:50:14;101040.38;;;24.91;100.00
51299;BME280;37382;45.192;9.790;2023-07-13T08:52:43;101047.75;;;25.16;100.00
51299;BME280;37382;45.192;9.790;2023-07-13T08:55:21;101042.50;;;25.49;100.00
51299;BME280;37382;45.192;9.790;2023-07-13T08:57:54;101047.84;;;25.74;100.00
51299;BME280;37382;45.192;9.790;2023-07-13T09:00:25;101061.81;;;26.33;100.00
51299;BME280;37382;45.192;9.790;2023-07-13T09:03:00;101066.25;;;26.10;100.00
51299;BME280;37382;45.192;9.790;2023-07-13T09:05:35;101078.53;;;26.33;100.00
51299;BME280;37382;45.192;9.790;2023-07-13T09:08:21;101069.69;;;25.97;100.00
51299;BME280;37382;45.192;9.790;2023-07-13T09:11:04;101086.16;;;25.93;100.00
51299;BME280;37382;45.192;9.790;2023-07-13T09:13:45;101085.63;;;25.91;100.00
51299;BME280;37382;45.192;9.790;2023-07-13T09:16:15;101083.50;;;25.78;100.00
51299;BME280;37382;45.192;9.790;2023-07-13T09:18:49;101076.16;;;25.87;100.00
51299;BME280;37382;45.192;9.790;2023-07-13T09:21:22;101074.00;;;26.13;100.00
51299;BME280;37382;45.192;9.790;2023-07-13T09:23:56;101079.59;;;26.13;100.00
51299;BME280;37382;45.192;9.790;2023-07-13T09:26:28;101075.94;;;25.83;100.00
51299;BME280;37382;45.192;9.790;2023-07-13T09:28:59;101087.16;;;26.07;100.00
51299;BME280;37382;45.192;9.790;2023-07-13T09:31:34;101084.59;;;26.40;100.00
51299;BME280;37382;45.192;9.790;2023-07-13T09:34:09;101084.22;;;25.93;100.00
51299;BME280;37382;45.192;9.790;2023-07-13T09:36:38;101085.03;;;25.99;100.00
51299;BME280;37382;45.192;9.790;2023-07-13T09:42:00;101084.31;;;26.42;100.00
51299;BME280;37382;45.192;9.790;2023-07-13T09:44:35;101076.25;;;26.11;100.00
51299;BME280;37382;45.192;9.790;2023-07-13T09:47:12;101078.84;;;26.32;100.00
51299;BME280;37382;45.192;9.790;2023-07-13T09:49:43;101081.25;;;26.87;100.00
51299;BME280;37382;45.192;9.790;2023-07-13T09:52:15;101085.72;;;27.07;100.00
51299;BME280;37382;45.192;9.790;2023-07-13T09:54:48;101087.56;;;27.16;100.00
51299;BME280;37382;45.192;9.790;2023-07-13T09:57:23;101069.28;;;27.43;100.00
51299;BME280;37382;45.192;9.790;2023-07-13T10:00:00;101063.31;;;27.31;100.00
51299;BME280;37382;45.192;9.790;2023-07-13T10:02:33;101052.44;;;27.29;100.00
51299;BME280;37382;45.192;9.790;2023-07-13T10:05:06;101071.69;;;27.31;100.00
51299;BME280;37382;45.192;9.790;2023-07-13T10:07:40;101084.00;;;27.49;100.00
51299;BME280;37382;45.192;9.790;2023-07-13T10:10:20;101090.28;;;27.93;100.00
51299;BME280;37382;45.192;9.790;2023-07-13T10:12:49;101109.97;;;28.01;100.00
51299;BME280;37382;45.192;9.790;2023-07-13T10:15:20;101106.81;;;28.08;100.00
51299;BME280;37382;45.192;9.790;2023-07-13T10:17:53;101093.88;;;28.26;100.00
51299;BME280;37382;45.192;9.790;2023-07-13T10:20:23;101083.91;;;28.20;100.00
51299;BME280;37382;45.192;9.790;2023-07-13T10:23:15;101082.06;;;28.29;100.00
51299;BME280;37382;45.192;9.790;2023-07-13T10:25:49;101071.41;;;28.45;100.00
51299;BME280;37382;45.192;9.790;2023-07-13T10:28:27;101057.78;;;27.97;100.00
51299;BME280;37382;45.192;9.790;2023-07-13T10:30:58;101068.72;;;27.93;100.00
51299;BME280;37382;45.192;9.790;2023-07-13T10:33:28;101057.41;;;28.31;100.00
51299;BME280;37382;45.192;9.790;2023-07-13T10:36:14;101055.53;;;28.82;100.00
51299;BME280;37382;45.192;9.790;2023-07-13T10:38:49;101047.66;;;28.43;100.00
51299;BME280;37382;45.192;9.790;2023-07-13T10:41:21;101039.97;;;28.76;100.00
51299;BME280;37382;45.192;9.790;2023-07-13T10:43:55;101030.34;;;28.68;100.00
51299;BME280;37382;45.192;9.790;2023-07-13T10:46:26;101039.00;;;28.95;100.00
51299;BME280;37382;45.192;9.790;2023-07-13T10:49:01;101037.09;;;28.81;100.00
51299;BME280;37382;45.192;9.790;2023-07-13T10:51:31;101033.69;;;28.70;100.00
51299;BME280;37382;45.192;9.790;2023-07-13T10:54:20;101034.19;;;28.72;100.00
51299;BME280;37382;45.192;9.790;2023-07-13T10:56:52;101028.16;;;29.16;100.00
51299;BME280;37382;45.192;9.790;2023-07-13T10:59:27;101027.88;;;29.62;100.00
51299;BME280;37382;45.192;9.790;2023-07-13T11:02:25;101020.88;;;29.51;100.00
51299;BME280;37382;45.192;9.790;2023-07-13T11:04:56;101023.44;;;29.93;100.00
51299;BME280;37382;45.192;9.790;2023-07-13T11:07:30;101022.56;;;29.84;100.00
51299;BME280;37382;45.192;9.790;2023-07-13T11:10:04;101019.03;;;30.41;100.00
51299;BME280;37382;45.192;9.790;2023-07-13T11:15:27;101009.19;;;30.69;100.00
51299;BME280;37382;45.192;9.790;2023-07-13T11:18:02;101007.88;;;30.67;100.00
51299;BME280;37382;45.192;9.790;2023-07-13T11:20:38;101007.91;;;31.11;100.00
51299;BME280;37382;45.192;9.790;2023-07-13T11:23:15;101003.44;;;30.75;100.00
51299;BME280;37382;45.192;9.790;2023-07-13T11:25:45;101002.00;;;30.37;100.00
51299;BME280;37382;45.192;9.790;2023-07-13T11:30:53;100990.69;;;29.48;100.00
51299;BME280;37382;45.192;9.790;2023-07-13T11:33:52;100982.19;;;29.85;100.00
51299;BME280;37382;45.192;9.790;2023-07-13T11:36:24;100989.84;;;29.48;100.00
51299;BME280;37382;45.192;9.790;2023-07-13T11:39:04;100987.81;;;29.39;100.00
51299;BME280;37382;45.192;9.790;2023-07-13T11:41:36;100982.41;;;29.43;100.00
51299;BME280;37382;45.192;9.790;2023-07-13T11:44:11;100972.53;;;29.45;100.00
51299;BME280;37382;45.192;9.790;2023-07-13T11:46:45;100970.13;;;29.30;100.00
51299;BME280;37382;45.192;9.790;2023-07-13T11:49:19;100972.25;;;29.56;100.00
51299;BME280;37382;45.192;9.790;2023-07-13T11:51:51;100965.53;;;29.66;100.00
51299;BME280;37382;45.192;9.790;2023-07-13T11:54:31;100960.63;;;30.60;100.00
51299;BME280;37382;45.192;9.790;2023-07-13T11:59:52;100942.63;;;30.96;100.00
51299;BME280;37382;45.192;9.790;2023-07-13T12:02:28;100940.41;;;31.46;100.00
51299;BME280;37382;45.192;9.790;2023-07-13T12:04:57;100946.03;;;31.46;100.00
51299;BME280;37382;45.192;9.790;2023-07-13T12:07:29;100942.13;;;31.03;100.00
51299;BME280;37382;45.192;9.790;2023-07-13T12:10:17;100934.41;;;31.73;100.00
51299;BME280;37382;45.192;9.790;2023-07-13T12:13:04;100940.78;;;31.35;100.00
51299;BME280;37382;45.192;9.790;2023-07-13T12:15:39;100943.97;;;31.81;97.59
51299;BME280;37382;45.192;9.790;2023-07-13T12:20:44;100952.78;;;31.62;95.71
51299;BME280;37382;45.192;9.790;2023-07-13T12:25:52;100955.16;;;31.90;97.96
51299;BME280;37382;45.192;9.790;2023-07-13T12:28:46;100963.28;;;32.30;100.00
51299;BME280;37382;45.192;9.790;2023-07-13T12:31:30;100960.75;;;32.58;100.00
51299;BME280;37382;45.192;9.790;2023-07-13T12:34:01;100962.88;;;32.61;100.00
51299;BME280;37382;45.192;9.790;2023-07-13T12:36:32;100955.53;;;31.24;100.00
51299;BME280;37382;45.192;9.790;2023-07-13T12:39:04;100946.69;;;31.99;100.00
51299;BME280;37382;45.192;9.790;2023-07-13T12:41:32;100944.53;;;32.55;99.16
51299;BME280;37382;45.192;9.790;2023-07-13T12:44:00;100940.47;;;33.07;96.99
51299;BME280;37382;45.192;9.790;2023-07-13T12:46:28;100943.47;;;32.18;93.26
51299;BME280;37382;45.192;9.790;2023-07-13T12:48:57;100936.44;;;32.54;100.00
51299;BME280;37382;45.192;9.790;2023-07-13T12:51:43;100925.53;;;32.94;98.41
51299;BME280;37382;45.192;9.790;2023-07-13T12:54:18;100923.38;;;33.46;95.70
51299;BME280;37382;45.192;9.790;2023-07-13T12:56:49;100925.56;;;33.07;94.59
51299;BME280;37382;45.192;9.790;2023-07-13T12:59:22;100923.22;;;32.24;98.37
51299;BME280;37382;45.192;9.790;2023-07-13T13:01:50;100918.69;;;32.83;97.56
51299;BME280;37382;45.192;9.790;2023-07-13T13:04:18;100914.22;;;32.31;94.66
51299;BME280;37382;45.192;9.790;2023-07-13T13:07:00;100907.31;;;34.08;92.10
51299;BME280;37382;45.192;9.790;2023-07-13T13:09:28;100901.44;;;34.01;89.14
51299;BME280;37382;45.192;9.790;2023-07-13T13:11:57;100910.09;;;33.13;87.00
51299;BME280;37382;45.192;9.790;2023-07-13T13:14:25;100917.06;;;33.86;85.90
51299;BME280;37382;45.192;9.790;2023-07-13T13:16:53;100925.09;;;33.96;81.79
51299;BME280;37382;45.192;9.790;2023-07-13T13:19:27;100923.09;;;34.62;81.99
51299;BME280;37382;45.192;9.790;2023-07-13T13:21:55;100922.22;;;35.59;75.46
51299;BME280;37382;45.192;9.790;2023-07-13T13:24:27;100937.06;;;33.93;75.19
51299;BME280;37382;45.192;9.790;2023-07-13T13:26:56;100936.34;;;34.09;79.16
51299;BME280;37382;45.192;9.790;2023-07-13T13:29:25;100935.34;;;35.07;77.16
51299;BME280;37382;45.192;9.790;2023-07-13T13:31:54;100941.19;;;35.74;72.59
51299;BME280;37382;45.192;9.790;2023-07-13T13:34:23;100938.84;;;34.75;78.79
51299;BME280;37382;45.192;9.790;2023-07-13T13:36:53;100935.25;;;34.63;76.01
51299;BME280;37382;45.192;9.790;2023-07-13T13:39:36;100932.81;;;34.89;74.43
51299;BME280;37382;45.192;9.790;2023-07-13T13:42:04;100949.91;;;34.40;70.18
51299;BME280;37382;45.192;9.790;2023-07-13T13:44:32;100948.56;;;33.76;74.77
51299;BME280;37382;45.192;9.790;2023-07-13T13:47:01;100946.50;;;34.10;74.43
51299;BME280;37382;45.192;9.790;2023-07-13T13:49:30;100949.38;;;34.63;75.08
51299;BME280;37382;45.192;9.790;2023-07-13T13:51:58;100949.81;;;34.77;71.75
51299;BME280;37382;45.192;9.790;2023-07-13T13:54:27;100939.91;;;34.83;68.92
51299;BME280;37382;45.192;9.790;2023-07-13T13:56:55;100936.97;;;35.36;68.95
51299;BME280;37382;45.192;9.790;2023-07-13T13:59:23;100917.28;;;35.72;67.88
51299;BME280;37382;45.192;9.790;2023-07-13T14:01:52;100920.41;;;35.98;65.40
51299;BME280;37382;45.192;9.790;2023-07-13T14:04:21;100920.66;;;36.09;64.92
51299;BME280;37382;45.192;9.790;2023-07-13T14:06:49;100925.88;;;35.43;64.53
51299;BME280;37382;45.192;9.790;2023-07-13T14:09:18;100924.25;;;34.73;63.71
51299;BME280;37382;45.192;9.790;2023-07-13T14:11:49;100921.09;;;35.03;65.50
51299;BME280;37382;45.192;9.790;2023-07-13T14:14:19;100904.63;;;35.82;62.36
51299;BME280;37382;45.192;9.790;2023-07-13T14:16:49;100905.69;;;35.45;64.76
51299;BME280;37382;45.192;9.790;2023-07-13T14:19:22;100916.56;;;35.15;64.80
51299;BME280;37382;45.192;9.790;2023-07-13T14:21:50;100905.06;;;35.23;66.78
51299;BME280;37382;45.192;9.790;2023-07-13T14:24:20;100917.38;;;34.59;67.03
51299;BME280;37382;45.192;9.790;2023-07-13T14:26:49;100917.31;;;34.83;65.26
51299;BME280;37382;45.192;9.790;2023-07-13T14:29:19;100919.94;;;35.20;64.69
51299;BME280;37382;45.192;9.790;2023-07-13T14:31:51;100922.00;;;35.36;60.61
51299;BME280;37382;45.192;9.790;2023-07-13T14:34:20;100915.03;;;35.77;62.09
51299;BME280;37382;45.192;9.790;2023-07-13T14:36:49;100908.75;;;36.20;57.24
51299;BME280;37382;45.192;9.790;2023-07-13T14:39:21;100909.22;;;36.77;56.93
51299;BME280;37382;45.192;9.790;2023-07-13T14:41:55;100909.06;;;35.83;58.73
51299;BME280;37382;45.192;9.790;2023-07-13T14:44:30;100910.50;;;35.76;57.95
51299;BME280;37382;45.192;9.790;2023-07-13T14:47:02;100912.09;;;36.25;58.54
51299;BME280;37382;45.192;9.790;2023-07-13T14:49:34;100906.78;;;35.88;59.45
51299;BME280;37382;45.192;9.790;2023-07-13T14:54:38;100902.88;;;36.64;58.05
51299;BME280;37382;45.192;9.790;2023-07-13T14:57:12;100891.53;;;36.64;58.06
51299;BME280;37382;45.192;9.790;2023-07-13T14:59:40;100895.81;;;37.16;56.75
51299;BME280;37382;45.192;9.790;2023-07-13T15:02:27;100902.19;;;37.29;57.33
51299;BME280;37382;45.192;9.790;2023-07-13T15:04:57;100898.88;;;40.18;52.47
51299;BME280;37382;45.192;9.790;2023-07-13T15:07:25;100889.25;;;43.98;44.21
51299;BME280;37382;45.192;9.790;2023-07-13T15:09:53;100894.38;;;44.18;42.08
51299;BME280;37382;45.192;9.790;2023-07-13T15:12:21;100895.09;;;46.57;38.18
51299;BME280;37382;45.192;9.790;2023-07-13T15:14:49;100902.03;;;46.59;36.14
51299;BME280;37382;45.192;9.790;2023-07-13T15:17:31;100894.06;;;45.83;37.22
51299;BME280;37382;45.192;9.790;2023-07-13T15:20:00;100907.81;;;46.15;36.39
51299;BME280;37382;45.192;9.790;2023-07-13T15:22:28;100900.47;;;47.93;34.11
51299;BME280;37382;45.192;9.790;2023-07-13T15:24:56;100902.81;;;50.30;31.26
51299;BME280;37382;45.192;9.790;2023-07-13T15:27:28;100902.66;;;50.12;30.55
51299;BME280;37382;45.192;9.790;2023-07-13T15:29:55;100911.22;;;51.32;28.29
51299;BME280;37382;45.192;9.790;2023-07-13T15:32:23;100909.41;;;52.12;27.78
51299;BME280;37382;45.192;9.790;2023-07-13T15:34:51;100908.41;;;49.90;29.68
51299;BME280;37382;45.192;9.790;2023-07-13T15:37:19;100916.16;;;48.51;31.14
51299;BME280;37382;45.192;9.790;2023-07-13T15:39:47;100921.56;;;51.42;28.40
51299;BME280;37382;45.192;9.790;2023-07-13T15:42:16;100923.66;;;50.03;28.51
51299;BME280;37382;45.192;9.790;2023-07-13T15:44:44;100922.22;;;48.27;30.03
51299;BME280;37382;45.192;9.790;2023-07-13T15:47:12;100920.19;;;50.30;27.96
51299;BME280;37382;45.192;9.790;2023-07-13T15:49:41;100929.16;;;50.99;27.17
51299;BME280;37382;45.192;9.790;2023-07-13T15:52:22;100917.19;;;50.43;27.61
51299;BME280;37382;45.192;9.790;2023-07-13T15:54:50;100909.56;;;51.71;26.41
51299;BME280;37382;45.192;9.790;2023-07-13T15:57:18;100909.38;;;51.56;26.61
51299;BME280;37382;45.192;9.790;2023-07-13T15:59:47;100913.81;;;50.00;27.85
51299;BME280;37382;45.192;9.790;2023-07-13T16:02:17;100917.97;;;49.52;28.87
51299;BME280;37382;45.192;9.790;2023-07-13T16:04:47;100920.47;;;48.59;29.07
51299;BME280;37382;45.192;9.790;2023-07-13T16:07:16;100912.78;;;49.46;28.54
51299;BME280;37382;45.192;9.790;2023-07-13T16:09:45;100916.47;;;50.52;27.39
51299;BME280;37382;45.192;9.790;2023-07-13T16:12:14;100926.22;;;49.27;27.98
51299;BME280;37382;45.192;9.790;2023-07-13T16:14:42;100921.22;;;48.47;29.08
51299;BME280;37382;45.192;9.790;2023-07-13T16:17:13;100923.50;;;48.39;28.93
51299;BME280;37382;45.192;9.790;2023-07-13T16:19:41;100920.44;;;49.27;27.87
51299;BME280;37382;45.192;9.790;2023-07-13T16:22:15;100909.13;;;50.60;27.58
51299;BME280;37382;45.192;9.790;2023-07-13T16:24:44;100906.13;;;51.54;25.65
51299;BME280;37382;45.192;9.790;2023-07-13T16:27:12;100914.25;;;50.12;27.36
51299;BME280;37382;45.192;9.790;2023-07-13T16:29:40;100907.94;;;50.48;27.25
51299;BME280;37382;45.192;9.790;2023-07-13T16:32:12;100918.94;;;47.96;29.44
51299;BME280;37382;45.192;9.790;2023-07-13T16:34:43;100914.47;;;48.67;29.75
51299;BME280;37382;45.192;9.790;2023-07-13T16:37:19;100911.44;;;47.99;29.83
51299;BME280;37382;45.192;9.790;2023-07-13T16:39:54;100900.06;;;45.92;31.17
51299;BME280;37382;45.192;9.790;2023-07-13T16:42:25;100898.69;;;46.81;31.29
51299;BME280;37382;45.192;9.790;2023-07-13T16:44:53;100892.66;;;48.36;29.05
51299;BME280;37382;45.192;9.790;2023-07-13T16:47:23;100892.47;;;49.37;28.20
51299;BME280;37382;45.192;9.790;2023-07-13T16:49:51;100894.25;;;49.70;27.59
51299;BME280;37382;45.192;9.790;2023-07-13T16:52:20;100889.56;;;47.02;30.28
51299;BME280;37382;45.192;9.790;2023-07-13T16:54:49;100900.84;;;46.57;31.16
51299;BME280;37382;45.192;9.790;2023-07-13T16:57:32;100898.03;;;47.92;29.98
51299;BME280;37382;45.192;9.790;2023-07-13T17:00:01;100892.94;;;47.67;30.10
51299;BME280;37382;45.192;9.790;2023-07-13T17:05:01;100891.28;;;46.63;31.52
51299;BME280;37382;45.192;9.790;2023-07-13T17:07:30;100888.41;;;44.70;33.49
51299;BME280;37382;45.192;9.790;2023-07-13T17:09:59;100882.81;;;45.45;32.05